createdAt,value
2018-01-26T00:03:00.738Z,7.57
2018-01-26T00:08:28.935Z,7.43
2018-01-26T00:13:57.143Z,6.77
2018-01-26T00:19:25.334Z,12.40
2018-01-26T00:24:54.273Z,7.67
2018-01-26T00:30:22.472Z,6.63
2018-01-26T00:35:50.641Z,8.50
2018-01-26T00:41:18.817Z,4.93
2018-01-26T00:46:47.016Z,5.37
2018-01-26T00:52:15.982Z,5.00
2018-01-26T00:57:44.154Z,7.63
2018-01-26T01:03:12.338Z,7.50
2018-01-26T01:08:40.534Z,6.50
2018-01-26T01:14:08.745Z,5.40
2018-01-26T01:19:37.722Z,5.60
2018-01-26T01:25:05.959Z,7.17
2018-01-26T01:30:34.176Z,11.07
2018-01-26T01:36:02.622Z,3.90
2018-01-26T01:41:31.092Z,4.60
2018-01-26T01:47:00.252Z,3.80
2018-01-26T01:52:28.439Z,3.17
2018-01-26T01:57:57.382Z,5.00
2018-01-26T02:03:26.358Z,3.70
2018-01-26T02:08:54.596Z,3.43
2018-01-26T02:14:22.852Z,2.93
2018-01-26T02:19:51.049Z,4.90
2018-01-26T02:25:19.241Z,2.97
2018-01-26T02:30:47.418Z,5.07
2018-01-26T02:36:15.624Z,2.53
2018-01-26T02:41:44.576Z,2.27
2018-01-26T02:47:13.525Z,6.60
2018-01-26T02:52:41.716Z,3.53
2018-01-26T02:58:09.919Z,2.53
2018-01-26T03:03:38.098Z,3.07
2018-01-26T03:09:06.320Z,5.90
2018-01-26T03:14:35.925Z,2.50
2018-01-26T03:20:07.728Z,2.60
2018-01-26T03:25:35.928Z,3.03
2018-01-26T03:31:04.136Z,3.60
2018-01-26T03:36:32.308Z,3.17
2018-01-26T03:42:00.482Z,2.50
2018-01-26T03:47:28.919Z,3.30
2018-01-26T03:52:57.105Z,2.00
2018-01-26T03:58:25.282Z,3.20
2018-01-26T04:03:55.418Z,1.83
2018-01-26T04:09:23.613Z,4.73
2018-01-26T04:14:54.944Z,4.27
2018-01-26T04:20:23.153Z,6.30
2018-01-26T04:25:51.373Z,4.20
2018-01-26T04:31:20.341Z,3.67
2018-01-26T04:36:48.534Z,3.40
2018-01-26T04:42:16.715Z,3.70
2018-01-26T04:47:45.657Z,2.90
2018-01-26T04:53:14.609Z,3.30
2018-01-26T04:58:42.819Z,3.67
2018-01-26T05:04:22.513Z,5.20
2018-01-26T05:09:51.482Z,4.90
2018-01-26T05:15:20.639Z,3.33
2018-01-26T05:20:48.832Z,7.50
2018-01-26T05:26:36.711Z,2.63
2018-01-26T05:32:06.898Z,4.77
2018-01-26T05:37:35.107Z,7.60
2018-01-26T05:43:03.355Z,4.30
2018-01-26T05:48:31.560Z,4.23
2018-01-26T05:54:00.087Z,5.53
2018-01-26T05:59:34.252Z,7.00
2018-01-26T06:05:02.448Z,5.27
2018-01-26T06:10:31.391Z,5.13
2018-01-26T06:16:00.334Z,4.17
2018-01-26T06:21:28.562Z,5.87
2018-01-26T06:26:57.549Z,10.23
2018-01-26T06:32:25.738Z,5.53
2018-01-26T06:37:53.928Z,6.10
2018-01-26T06:43:22.889Z,5.73
2018-01-26T06:48:58.892Z,5.43
2018-01-26T06:54:27.959Z,7.17
2018-01-26T06:59:56.141Z,6.30
2018-01-26T07:05:25.115Z,9.10
2018-01-26T07:10:53.317Z,7.47
2018-01-26T07:16:21.494Z,9.07
2018-01-26T07:21:49.682Z,7.57
2018-01-26T07:27:17.862Z,7.97
2018-01-26T07:32:46.802Z,7.20
2018-01-26T07:38:15.745Z,8.00
2018-01-26T07:43:43.937Z,9.53
2018-01-26T07:49:12.140Z,12.97
2018-01-26T07:54:40.413Z,14.53
2018-01-26T08:00:08.633Z,7.77
2018-01-26T08:05:36.832Z,5.63
2018-01-26T08:11:05.101Z,5.67
2018-01-26T08:16:33.324Z,12.23
2018-01-26T08:22:01.500Z,6.57
2018-01-26T08:27:30.449Z,7.03
2018-01-26T08:32:58.655Z,8.27
2018-01-26T08:38:26.831Z,8.20
2018-01-26T08:43:55.037Z,7.80
2018-01-26T08:49:23.998Z,9.07
2018-01-26T08:54:53.293Z,7.23
2018-01-26T09:00:22.229Z,5.77
2018-01-26T09:05:51.179Z,7.20
2018-01-26T09:11:19.373Z,7.17
2018-01-26T09:16:47.562Z,8.00
2018-01-26T09:22:15.760Z,8.13
2018-01-26T09:27:43.925Z,8.07
2018-01-26T09:33:12.126Z,7.10
2018-01-26T09:38:40.305Z,7.10
2018-01-26T09:44:08.488Z,9.17
2018-01-26T09:49:36.677Z,6.53
2018-01-26T09:55:04.857Z,5.53
2018-01-26T10:00:33.033Z,8.37
2018-01-26T10:06:01.241Z,9.17
2018-01-26T10:11:29.445Z,10.60
2018-01-26T10:16:57.633Z,8.83
2018-01-26T10:22:26.590Z,9.57
2018-01-26T10:27:54.783Z,7.30
2018-01-26T10:33:23.747Z,5.53
2018-01-26T10:38:51.917Z,6.90
2018-01-26T10:44:20.160Z,8.13
2018-01-26T10:49:48.336Z,8.53
2018-01-26T10:55:16.514Z,12.27
2018-01-26T11:00:44.701Z,8.40
2018-01-26T11:06:12.905Z,13.47
2018-01-26T11:11:41.098Z,15.70
2018-01-26T11:17:09.350Z,14.33
2018-01-26T11:22:37.609Z,18.50
2018-01-26T11:28:06.575Z,24.40
2018-01-26T11:33:34.788Z,16.63
2018-01-26T11:39:03.010Z,14.67
2018-01-26T11:44:31.230Z,15.77
2018-01-26T11:49:59.444Z,19.93
2018-01-26T11:55:28.396Z,25.80
2018-01-26T12:00:56.602Z,19.00
2018-01-26T12:06:24.806Z,18.87
2018-01-26T12:11:53.029Z,14.13
2018-01-26T12:17:21.369Z,16.80
2018-01-26T12:22:50.459Z,16.87
2018-01-26T12:28:18.661Z,16.93
2018-01-26T12:33:46.981Z,19.37
2018-01-26T12:39:15.203Z,18.67
2018-01-26T12:44:43.389Z,25.00
2018-01-26T12:50:12.379Z,20.60
2018-01-26T12:55:40.609Z,23.40
2018-01-26T13:01:08.821Z,29.30
2018-01-26T13:06:37.032Z,32.33
2018-01-26T13:12:05.708Z,25.70
2018-01-26T13:17:35.998Z,24.90
2018-01-26T13:23:04.962Z,23.73
2018-01-26T13:28:33.879Z,22.63
2018-01-26T13:34:03.051Z,23.23
2018-01-26T13:39:31.467Z,23.43
2018-01-26T13:45:00.448Z,25.57
2018-01-26T13:50:28.634Z,24.07
2018-01-26T13:55:56.854Z,21.33
2018-01-26T14:01:25.615Z,24.43
2018-01-26T14:06:53.876Z,22.50
2018-01-26T14:12:22.324Z,21.93
2018-01-26T14:17:51.669Z,27.27
2018-01-26T14:23:19.915Z,26.17
2018-01-26T14:28:48.248Z,20.67
2018-01-26T14:34:16.437Z,24.53
2018-01-26T14:39:44.660Z,25.03
2018-01-26T14:45:12.866Z,25.27
2018-01-26T14:50:41.855Z,30.90
2018-01-26T14:56:12.529Z,32.30
2018-01-26T15:01:40.754Z,30.67
2018-01-26T15:07:08.984Z,32.90
2018-01-26T15:12:37.231Z,30.90
2018-01-26T15:18:06.269Z,28.70
2018-01-26T15:23:34.474Z,33.90
2018-01-26T15:29:03.688Z,45.33
2018-01-26T15:34:31.956Z,33.30
2018-01-26T15:40:00.154Z,34.17
2018-01-26T15:45:28.371Z,33.13
2018-01-26T15:50:56.589Z,38.17
2018-01-26T15:56:24.796Z,40.57
2018-01-26T16:01:52.989Z,40.93
2018-01-26T16:07:21.276Z,34.37
2018-01-26T16:12:49.672Z,37.10
2018-01-26T16:18:18.302Z,41.20
2018-01-26T16:23:46.493Z,38.17
2018-01-26T16:29:14.735Z,38.33
2018-01-26T16:34:42.983Z,43.20
2018-01-26T16:40:11.213Z,42.00
2018-01-26T16:45:45.488Z,40.67
2018-01-26T16:51:14.610Z,45.70
2018-01-26T16:56:50.472Z,41.93
2018-01-26T17:02:18.758Z,44.27
2018-01-26T17:07:50.575Z,39.97
2018-01-26T17:13:26.184Z,43.85
2018-01-26T17:18:54.404Z,44.03
2018-01-26T17:24:22.603Z,45.43
2018-01-26T17:29:59.151Z,46.00
2018-01-26T17:35:27.377Z,37.40
2018-01-26T17:40:55.828Z,43.30
2018-01-26T17:46:24.055Z,43.30
2018-01-26T17:51:52.381Z,46.27
2018-01-26T17:57:20.599Z,41.67
2018-01-26T18:02:52.601Z,44.70
2018-01-26T18:08:20.816Z,46.33
2018-01-26T18:13:49.010Z,40.30
2018-01-26T18:19:22.179Z,45.33
2018-01-26T18:24:50.400Z,44.33
2018-01-26T18:30:18.619Z,47.27
2018-01-26T18:35:46.817Z,50.40
2018-01-26T18:41:15.020Z,82.93
2018-01-26T18:46:43.225Z,77.23
2018-01-26T18:52:12.217Z,73.30
2018-01-26T18:57:40.463Z,74.93
2018-01-26T19:03:09.645Z,60.80
2018-01-26T19:08:38.789Z,58.00
2018-01-26T19:14:07.159Z,66.83
2018-01-26T19:19:35.384Z,63.87
2018-01-26T19:25:03.638Z,60.73
2018-01-26T19:30:31.936Z,67.00
2018-01-26T19:36:00.540Z,65.10
2018-01-26T19:41:28.774Z,74.13
2018-01-26T19:47:03.639Z,69.10
2018-01-26T19:52:31.966Z,70.17
2018-01-26T19:58:01.261Z,67.53
2018-01-26T20:03:32.527Z,229.53
2018-01-26T20:09:07.959Z,186.90
2018-01-26T20:14:36.706Z,61.90
2018-01-26T20:20:05.883Z,99.77
2018-01-26T20:25:38.159Z,87.93
2018-01-26T20:31:06.463Z,93.90
2018-01-26T20:36:35.256Z,87.23
2018-01-26T20:42:03.467Z,70.37
2018-01-26T20:47:32.453Z,60.60
2018-01-26T20:53:01.438Z,119.80
2018-01-26T20:58:30.601Z,77.60
2018-01-26T21:03:59.597Z,60.10
2018-01-26T21:09:28.664Z,61.17
2018-01-26T21:15:02.250Z,54.13
2018-01-26T21:20:38.718Z,57.40
2018-01-26T21:26:07.156Z,46.20
2018-01-26T21:31:38.569Z,48.30
2018-01-26T21:37:11.157Z,48.47
2018-01-26T21:42:40.167Z,39.97
2018-01-26T21:48:08.489Z,41.33
2018-01-26T21:54:01.920Z,40.97
2018-01-26T21:59:34.407Z,41.73
2018-01-26T22:05:10.051Z,39.50
2018-01-26T22:10:38.299Z,34.63
2018-01-26T22:16:06.550Z,35.70
2018-01-26T22:21:34.795Z,36.60
2018-01-26T22:27:02.973Z,30.60
2018-01-26T22:32:37.877Z,37.43
2018-01-26T22:38:07.057Z,31.13
2018-01-26T22:43:36.064Z,29.50
2018-01-26T22:49:04.664Z,35.50
2018-01-26T22:54:35.228Z,35.28
2018-01-26T23:00:04.932Z,33.63
2018-01-26T23:05:48.012Z,27.50
2018-01-26T23:11:16.394Z,28.90
2018-01-26T23:16:44.642Z,27.60
2018-01-26T23:22:12.862Z,26.13
2018-01-26T23:27:41.039Z,24.97
2018-01-26T23:33:12.033Z,24.80
2018-01-26T23:38:40.254Z,26.57
2018-01-26T23:44:08.483Z,32.07
2018-01-26T23:49:36.685Z,25.37
2018-01-26T23:55:10.425Z,28.30
